createdAt,value
2023-04-02T00:01:45.546Z,0.30
2023-04-02T00:05:16.812Z,0.30
2023-04-02T00:08:22.654Z,0.20
2023-04-02T00:11:37.894Z,0.40
2023-04-02T00:14:40.135Z,0.30
2023-04-02T00:17:42.114Z,0.20
2023-04-02T00:21:19.166Z,0.20
2023-04-02T00:24:22.408Z,0.20
2023-04-02T00:27:24.599Z,0.30
2023-04-02T00:30:26.967Z,0.20
2023-04-02T00:33:31.710Z,0.30
2023-04-02T00:36:35.152Z,0.30
2023-04-02T00:39:41.698Z,0.30
2023-04-02T00:42:45.116Z,0.30
2023-04-02T00:45:51.240Z,0.30
2023-04-02T00:48:56.493Z,0.40
2023-04-02T00:52:21.633Z,0.20
2023-04-02T00:55:50.646Z,0.50
2023-04-02T00:58:55.118Z,0.27
2023-04-02T01:02:22.697Z,0.30
2023-04-02T01:05:25.048Z,0.23
2023-04-02T01:08:56.814Z,0.30
2023-04-02T01:12:13.918Z,0.20
2023-04-02T01:15:21.644Z,0.30
2023-04-02T01:18:53.675Z,0.30
2023-04-02T01:22:14.430Z,0.20
2023-04-02T01:25:35.894Z,0.40
2023-04-02T01:29:10.856Z,0.20
2023-04-02T01:32:17.002Z,0.30
2023-04-02T01:35:19.366Z,0.50
2023-04-02T01:38:29.991Z,0.20
2023-04-02T01:41:48.082Z,0.47
2023-04-02T01:45:00.922Z,0.40
2023-04-02T01:48:12.966Z,0.30
2023-04-02T01:51:35.300Z,0.17
2023-04-02T01:54:41.880Z,0.30
2023-04-02T01:57:50.078Z,0.20
2023-04-02T02:01:02.904Z,0.20
2023-04-02T02:04:07.508Z,0.20
2023-04-02T02:07:18.804Z,0.30
2023-04-02T02:10:28.903Z,0.20
2023-04-02T02:13:32.177Z,0.30
2023-04-02T02:16:42.383Z,0.17
2023-04-02T02:19:52.224Z,0.30
2023-04-02T02:22:56.549Z,0.33
2023-04-02T02:25:59.021Z,0.23
2023-04-02T02:29:04.232Z,0.20
2023-04-02T02:32:09.821Z,0.20
2023-04-02T02:35:21.945Z,0.30
2023-04-02T02:38:34.770Z,0.20
2023-04-02T02:41:50.441Z,0.13
2023-04-02T02:44:55.957Z,0.20
2023-04-02T02:47:59.921Z,0.20
2023-04-02T02:51:08.028Z,0.20
2023-04-02T02:54:10.672Z,0.40
2023-04-02T02:57:20.853Z,0.20
2023-04-02T03:00:25.472Z,0.40
2023-04-02T03:03:32.826Z,0.20
2023-04-02T03:06:37.178Z,0.40
2023-04-02T03:10:06.416Z,0.20
2023-04-02T03:13:23.435Z,0.33
2023-04-02T03:16:36.934Z,0.30
2023-04-02T03:19:53.534Z,0.37
2023-04-02T03:23:22.324Z,0.30
2023-04-02T03:27:02.297Z,0.30
2023-04-02T03:30:28.874Z,0.40
2023-04-02T03:34:00.217Z,0.30
2023-04-02T03:37:21.568Z,0.20
2023-04-02T03:40:34.107Z,0.33
2023-04-02T03:43:47.232Z,0.30
2023-04-02T03:46:57.837Z,0.40
2023-04-02T03:50:15.098Z,0.60
2023-04-02T03:53:17.375Z,0.50
2023-04-02T03:56:27.691Z,0.63
2023-04-02T03:59:41.726Z,0.50
2023-04-02T04:02:50.884Z,0.43
2023-04-02T04:06:05.925Z,0.60
2023-04-02T04:09:10.291Z,0.70
2023-04-02T04:12:32.912Z,0.47
2023-04-02T04:15:42.252Z,0.53
2023-04-02T04:18:53.150Z,0.50
2023-04-02T04:22:15.386Z,0.63
2023-04-02T04:25:33.940Z,0.60
2023-04-02T04:28:58.674Z,0.80
2023-04-02T04:32:32.595Z,0.60
2023-04-02T04:35:48.577Z,0.70
2023-04-02T04:38:55.832Z,0.60
2023-04-02T04:42:02.853Z,0.57
2023-04-02T04:45:24.057Z,0.50
2023-04-02T04:48:48.380Z,0.70
2023-04-02T04:52:14.854Z,0.63
2023-04-02T04:55:38.860Z,0.60
2023-04-02T04:58:48.796Z,1.00
2023-04-02T05:02:27.302Z,0.60
2023-04-02T05:05:34.148Z,0.90
2023-04-02T05:08:44.607Z,0.50
2023-04-02T05:11:55.879Z,0.80
2023-04-02T05:15:04.714Z,0.70
2023-04-02T05:18:33.223Z,0.50
2023-04-02T05:21:49.842Z,0.60
2023-04-02T05:25:27.542Z,0.70
2023-04-02T05:28:47.663Z,0.90
2023-04-02T05:32:13.970Z,0.80
2023-04-02T05:35:22.878Z,0.80
2023-04-02T05:38:32.357Z,0.87
2023-04-02T05:41:43.292Z,1.10
2023-04-02T05:45:23.369Z,0.90
2023-04-02T05:48:35.554Z,0.80
2023-04-02T05:51:50.519Z,1.00
2023-04-02T05:54:58.838Z,0.93
2023-04-02T06:01:56.340Z,1.00
2023-04-02T06:05:13.777Z,0.93
2023-04-02T06:08:22.884Z,0.90
2023-04-02T06:11:37.260Z,0.77
2023-04-02T06:14:40.165Z,0.60
2023-04-02T06:17:51.577Z,0.60
2023-04-02T06:20:54.976Z,0.60
2023-04-02T06:24:02.592Z,0.53
2023-04-02T06:27:09.034Z,0.60
2023-04-02T06:30:19.384Z,0.50
2023-04-02T06:33:24.141Z,0.70
2023-04-02T06:36:28.735Z,0.53
2023-04-02T06:39:36.453Z,0.60
2023-04-02T06:42:44.517Z,0.40
2023-04-02T06:46:35.768Z,0.70
2023-04-02T06:49:59.418Z,0.40
2023-04-02T06:53:08.572Z,0.70
2023-04-02T06:56:43.533Z,0.70
2023-04-02T06:59:49.181Z,0.50
2023-04-02T07:02:56.429Z,0.30
2023-04-02T07:06:02.268Z,0.60
2023-04-02T07:09:05.510Z,0.50
2023-04-02T07:12:15.593Z,0.70
2023-04-02T07:15:20.344Z,0.50
2023-04-02T07:18:25.303Z,0.80
2023-04-02T07:21:27.923Z,0.97
2023-04-02T07:24:30.917Z,0.70
2023-04-02T07:27:32.879Z,0.70
2023-04-02T07:30:35.609Z,0.80
2023-04-02T07:33:37.693Z,1.13
2023-04-02T07:36:39.772Z,1.10
2023-04-02T07:39:42.465Z,0.80
2023-04-02T07:42:45.493Z,0.90
2023-04-02T07:45:47.653Z,0.60
2023-04-02T07:48:49.750Z,0.67
2023-04-02T07:51:52.761Z,0.50
2023-04-02T07:54:55.245Z,0.80
2023-04-02T07:57:59.835Z,0.40
2023-04-02T08:01:03.911Z,0.63
2023-04-02T08:04:08.542Z,0.70
2023-04-02T08:07:11.055Z,0.40
2023-04-02T08:10:13.389Z,0.67
2023-04-02T08:13:16.724Z,0.60
2023-04-02T08:16:18.857Z,0.40
2023-04-02T08:19:21.113Z,0.60
2023-04-02T08:22:23.164Z,0.50
2023-04-02T08:25:25.232Z,0.40
2023-04-02T08:28:27.297Z,0.60
2023-04-02T08:31:30.609Z,0.50
2023-04-02T08:34:32.727Z,0.73
2023-04-02T08:37:34.826Z,0.60
2023-04-02T08:40:39.830Z,0.57
2023-04-02T08:44:07.268Z,0.67
2023-04-02T08:47:11.110Z,0.60
2023-04-02T08:50:30.391Z,0.50
2023-04-02T08:53:39.376Z,1.07
2023-04-02T08:56:48.264Z,0.60
2023-04-02T08:59:57.223Z,1.10
2023-04-02T09:03:06.901Z,0.47
2023-04-02T09:06:14.698Z,0.67
2023-04-02T09:09:18.780Z,7.00
2023-04-02T09:12:26.449Z,0.80
2023-04-02T09:15:36.187Z,1.13
2023-04-02T09:18:39.683Z,0.60
2023-04-02T09:21:53.140Z,0.80
2023-04-02T09:24:57.666Z,0.70
2023-04-02T09:28:06.407Z,0.90
2023-04-02T09:31:43.559Z,0.80
2023-04-02T09:34:45.905Z,0.73
2023-04-02T09:37:48.510Z,0.60
2023-04-02T09:40:55.898Z,0.80
2023-04-02T09:44:27.378Z,0.67
2023-04-02T09:47:32.342Z,0.80
2023-04-02T09:50:35.037Z,0.73
2023-04-02T09:53:42.303Z,0.63
2023-04-02T09:57:04.878Z,0.83
2023-04-02T10:00:32.171Z,1.20
2023-04-02T10:03:35.284Z,1.00
2023-04-02T10:06:37.604Z,0.90
2023-04-02T10:09:39.745Z,1.57
2023-04-02T10:12:44.101Z,1.00
2023-04-02T10:15:54.490Z,0.80
2023-04-02T10:19:07.294Z,1.10
2023-04-02T10:22:23.203Z,0.80
2023-04-02T10:25:31.342Z,1.00
2023-04-02T10:29:08.770Z,0.97
2023-04-02T10:32:13.584Z,1.07
2023-04-02T10:35:33.391Z,0.80
2023-04-02T10:38:51.415Z,1.23
2023-04-02T10:42:00.914Z,0.87
2023-04-02T10:45:14.056Z,0.97
2023-04-02T10:48:34.171Z,0.90
2023-04-02T10:51:44.822Z,0.87
2023-04-02T10:54:59.279Z,0.80
2023-04-02T10:58:08.081Z,0.87
2023-04-02T11:01:17.896Z,0.90
2023-04-02T11:04:45.227Z,0.80
2023-04-02T11:11:19.526Z,0.70
2023-04-02T11:14:26.587Z,0.60
2023-04-02T11:17:29.122Z,0.70
2023-04-02T11:20:49.402Z,0.63
2023-04-02T11:23:59.051Z,0.50
2023-04-02T11:27:10.031Z,0.40
2023-04-02T11:30:18.969Z,0.57
2023-04-02T11:33:38.121Z,0.50
2023-04-02T11:36:51.073Z,0.53
2023-04-02T11:39:58.488Z,0.60
2023-04-02T11:43:37.173Z,0.53
2023-04-02T11:46:41.691Z,0.40
2023-04-02T11:50:04.648Z,0.80
2023-04-02T11:53:13.188Z,0.40
2023-04-02T11:56:43.561Z,0.23
2023-04-02T11:59:58.650Z,0.50
2023-04-02T12:03:26.145Z,0.50
2023-04-02T12:06:49.779Z,0.30
2023-04-02T12:09:55.682Z,0.50
2023-04-02T12:12:57.949Z,0.30
2023-04-02T12:16:00.086Z,0.30
2023-04-02T12:19:08.314Z,0.40
2023-04-02T12:22:20.553Z,0.40
2023-04-02T12:25:41.382Z,0.60
2023-04-02T12:28:47.002Z,0.40
2023-04-02T12:31:49.457Z,0.47
2023-04-02T12:34:53.696Z,0.40
2023-04-02T12:37:57.462Z,0.60
2023-04-02T12:41:18.951Z,0.60
2023-04-02T12:44:24.124Z,0.70
2023-04-02T12:47:27.342Z,0.80
2023-04-02T12:50:29.761Z,0.70
2023-04-02T12:53:36.586Z,0.70
2023-04-02T12:56:39.082Z,0.70
2023-04-02T12:59:43.238Z,1.10
2023-04-02T13:02:48.426Z,0.97
2023-04-02T13:05:56.431Z,0.97
2023-04-02T13:09:00.575Z,1.10
2023-04-02T13:12:04.012Z,0.97
2023-04-02T13:15:09.248Z,1.30
2023-04-02T13:18:14.445Z,0.80
2023-04-02T13:21:19.765Z,1.00
2023-04-02T13:24:24.741Z,1.13
2023-04-02T13:27:26.979Z,1.00
2023-04-02T13:30:29.518Z,0.63
2023-04-02T13:33:31.930Z,0.83
2023-04-02T13:36:34.153Z,0.90
2023-04-02T13:39:36.259Z,1.10
2023-04-02T13:42:39.172Z,0.90
2023-04-02T13:45:43.044Z,0.90
2023-04-02T13:48:45.046Z,1.00
2023-04-02T13:51:58.439Z,0.90
2023-04-02T13:55:01.851Z,1.00
2023-04-02T13:58:05.319Z,1.10
2023-04-02T14:01:08.001Z,1.10
2023-04-02T14:04:14.282Z,1.33
2023-04-02T14:07:34.716Z,1.30
2023-04-02T14:11:17.772Z,1.40
2023-04-02T14:14:29.416Z,1.00
2023-04-02T14:17:55.702Z,1.00
2023-04-02T14:21:12.530Z,1.27
2023-04-02T14:24:26.878Z,0.80
2023-04-02T14:27:53.833Z,1.10
2023-04-02T14:31:07.190Z,1.27
2023-04-02T14:34:42.128Z,1.30
2023-04-02T14:38:37.730Z,1.20
2023-04-02T14:41:58.450Z,1.27
2023-04-02T14:45:33.932Z,1.50
2023-04-02T14:48:46.558Z,1.80
2023-04-02T14:52:05.420Z,1.80
2023-04-02T14:55:40.933Z,2.17
2023-04-02T14:58:48.701Z,2.10
2023-04-02T15:01:59.028Z,1.97
2023-04-02T15:05:12.364Z,2.37
2023-04-02T15:08:52.364Z,2.30
2023-04-02T15:12:18.002Z,2.33
2023-04-02T15:15:40.584Z,2.40
2023-04-02T15:18:43.887Z,2.50
2023-04-02T15:21:59.864Z,2.20
2023-04-02T15:25:16.869Z,2.00
2023-04-02T15:28:38.821Z,2.47
2023-04-02T15:31:46.796Z,2.37
2023-04-02T15:34:59.314Z,2.13
2023-04-02T15:38:19.878Z,2.53
2023-04-02T15:41:47.717Z,2.23
2023-04-02T15:45:42.733Z,2.40
2023-04-02T15:49:09.758Z,2.20
2023-04-02T15:52:33.507Z,2.13
2023-04-02T15:56:16.981Z,2.30
2023-04-02T15:59:41.118Z,2.50
2023-04-02T16:03:04.940Z,2.47
2023-04-02T16:06:27.246Z,2.80
2023-04-02T16:09:43.242Z,2.40
2023-04-02T16:12:45.957Z,2.60
2023-04-02T16:16:00.296Z,2.70
2023-04-02T16:19:15.992Z,3.27
2023-04-02T16:22:34.342Z,3.20
2023-04-02T16:25:49.171Z,3.17
2023-04-02T16:29:23.793Z,3.63
2023-04-02T16:32:48.508Z,2.83
2023-04-02T16:36:36.213Z,3.70
2023-04-02T16:40:08.239Z,3.60
2023-04-02T16:43:20.184Z,3.70
2023-04-02T16:46:57.309Z,3.70
2023-04-02T16:50:19.808Z,3.70
2023-04-02T16:53:50.973Z,3.80
2023-04-02T16:57:38.495Z,3.50
2023-04-02T17:01:06.386Z,3.70
2023-04-02T17:04:18.321Z,4.23
2023-04-02T17:07:48.426Z,4.27
2023-04-02T17:10:53.681Z,4.10
2023-04-02T17:14:14.079Z,4.30
2023-04-02T17:17:18.103Z,4.27
2023-04-02T17:20:24.596Z,4.43
2023-04-02T17:23:31.970Z,4.43
2023-04-02T17:26:38.791Z,4.40
2023-04-02T17:29:46.068Z,4.70
2023-04-02T17:32:49.378Z,3.60
2023-04-02T17:36:16.275Z,3.50
2023-04-02T17:40:11.843Z,3.50
2023-04-02T17:43:48.128Z,3.07
2023-04-02T17:47:15.936Z,3.03
2023-04-02T17:50:22.070Z,3.00
2023-04-02T17:53:51.937Z,3.10
2023-04-02T17:57:27.959Z,3.17
2023-04-02T18:00:59.241Z,3.13
2023-04-02T18:04:29.274Z,3.23
2023-04-02T18:08:02.327Z,2.63
2023-04-02T18:11:15.892Z,3.00
2023-04-02T18:14:31.612Z,2.53
2023-04-02T18:17:46.842Z,2.50
2023-04-02T18:21:17.522Z,2.53
2023-04-02T18:24:48.159Z,2.33
2023-04-02T18:28:38.103Z,3.13
2023-04-02T18:31:53.210Z,2.77
2023-04-02T18:35:06.223Z,2.67
2023-04-02T18:38:44.114Z,2.57
2023-04-02T18:42:00.002Z,2.90
2023-04-02T18:45:33.983Z,2.43
2023-04-02T18:49:19.179Z,2.63
2023-04-02T18:52:23.947Z,2.87
2023-04-02T18:55:32.982Z,2.20
2023-04-02T18:58:59.307Z,2.40
2023-04-02T19:02:34.006Z,2.43
2023-04-02T19:05:53.083Z,2.27
2023-04-02T19:09:03.684Z,2.20
2023-04-02T19:12:26.999Z,2.67
2023-04-02T19:16:08.241Z,1.93
2023-04-02T19:19:38.834Z,2.50
2023-04-02T19:23:30.607Z,2.00
2023-04-02T19:27:05.429Z,2.27
2023-04-02T19:30:36.097Z,2.47
2023-04-02T19:33:53.376Z,2.20
2023-04-02T19:37:18.844Z,2.20
2023-04-02T19:40:29.878Z,2.10
2023-04-02T19:43:33.096Z,2.30
2023-04-02T19:46:37.025Z,2.63
2023-04-02T19:49:40.336Z,2.20
2023-04-02T19:52:43.726Z,2.30
2023-04-02T19:55:52.386Z,2.93
2023-04-02T19:59:02.416Z,2.53
2023-04-02T20:02:11.751Z,3.37
2023-04-02T20:05:15.401Z,2.53
2023-04-02T20:08:19.178Z,2.23
2023-04-02T20:11:22.334Z,1.83
2023-04-02T20:14:25.581Z,1.90
2023-04-02T20:17:29.057Z,2.00
2023-04-02T20:20:31.734Z,2.20
2023-04-02T20:23:35.101Z,2.33
2023-04-02T20:26:40.439Z,2.37
2023-04-02T20:29:43.757Z,1.87
2023-04-02T20:32:46.188Z,2.03
2023-04-02T20:35:52.329Z,1.70
2023-04-02T20:38:57.952Z,1.90
2023-04-02T20:42:03.065Z,1.80
2023-04-02T20:45:06.799Z,1.93
2023-04-02T20:48:09.189Z,1.87
2023-04-02T20:51:15.914Z,2.00
2023-04-02T20:54:17.968Z,2.30
2023-04-02T20:57:22.048Z,1.90
2023-04-02T21:00:24.221Z,2.17
2023-04-02T21:03:26.251Z,2.33
2023-04-02T21:06:31.882Z,2.23
2023-04-02T21:09:33.866Z,2.40
2023-04-02T21:12:36.008Z,2.23
2023-04-02T21:15:43.137Z,2.10
2023-04-02T21:18:46.864Z,2.50
2023-04-02T21:21:48.949Z,2.67
2023-04-02T21:24:51.472Z,2.27
2023-04-02T21:27:53.471Z,2.70
2023-04-02T21:31:13.674Z,2.73
2023-04-02T21:34:17.157Z,3.03
2023-04-02T21:37:19.137Z,2.70
2023-04-02T21:40:21.209Z,3.07
2023-04-02T21:43:23.210Z,2.80
2023-04-02T21:46:31.349Z,2.43
2023-04-02T21:49:33.337Z,2.70
2023-04-02T21:52:35.392Z,3.40
2023-04-02T21:55:37.384Z,2.73
2023-04-02T21:58:39.589Z,2.97
2023-04-02T22:01:48.431Z,3.07
2023-04-02T22:04:52.113Z,2.80
2023-04-02T22:07:54.321Z,3.03
2023-04-02T22:10:56.549Z,3.10
2023-04-02T22:13:59.108Z,3.13
2023-04-02T22:17:01.585Z,2.73
2023-04-02T22:20:05.093Z,3.00
2023-04-02T22:23:07.160Z,2.73
2023-04-02T22:26:10.771Z,2.67
2023-04-02T22:29:12.850Z,2.73
2023-04-02T22:32:14.991Z,3.00
2023-04-02T22:35:17.423Z,2.70
2023-04-02T22:38:19.568Z,2.80
2023-04-02T22:41:25.778Z,2.87
2023-04-02T22:44:27.881Z,2.83
2023-04-02T22:47:29.877Z,3.00
2023-04-02T22:50:32.222Z,2.67
2023-04-02T22:53:35.098Z,3.17
2023-04-02T22:56:37.828Z,2.60
2023-04-02T22:59:39.848Z,3.30
2023-04-02T23:02:41.998Z,2.63
2023-04-02T23:05:46.227Z,2.87
2023-04-02T23:08:48.402Z,2.80
2023-04-02T23:11:50.600Z,2.57
2023-04-02T23:14:53.414Z,2.50
2023-04-02T23:17:55.780Z,2.70
2023-04-02T23:20:58.164Z,2.80
2023-04-02T23:24:00.399Z,2.53
2023-04-02T23:27:02.536Z,2.57
2023-04-02T23:30:05.561Z,2.70
2023-04-02T23:33:07.682Z,2.40
2023-04-02T23:36:13.734Z,2.60
2023-04-02T23:39:17.208Z,2.30
2023-04-02T23:42:19.250Z,2.63
2023-04-02T23:45:21.242Z,2.80
2023-04-02T23:48:23.322Z,2.50
2023-04-02T23:51:26.770Z,2.60
2023-04-02T23:54:28.801Z,2.33
2023-04-02T23:57:31.050Z,2.30
